sensor_id;sensor_type;location;lat;lon;timestamp;P1;durP1;ratioP1;P2;durP2;ratioP2
22849;SDS011;11591;44.792;10.358;2022-07-06T04:09:54;3.33;;;1.42;;
22849;SDS011;11591;44.792;10.358;2022-07-06T04:12:20;2.83;;;1.10;;
22849;SDS011;11591;44.792;10.358;2022-07-06T04:14:46;9.10;;;1.50;;
22849;SDS011;11591;44.792;10.358;2022-07-06T04:17:12;6.78;;;1.30;;
22849;SDS011;11591;44.792;10.358;2022-07-06T04:19:56;6.57;;;1.58;;
22849;SDS011;11591;44.792;10.358;2022-07-06T04:22:22;2.85;;;1.40;;
22849;SDS011;11591;44.792;10.358;2022-07-06T04:24:48;2.03;;;1.35;;
22849;SDS011;11591;44.792;10.358;2022-07-06T04:27:14;3.17;;;1.27;;
22849;SDS011;11591;44.792;10.358;2022-07-06T04:29:40;2.72;;;1.40;;
22849;SDS011;11591;44.792;10.358;2022-07-06T04:32:06;5.32;;;1.42;;
22849;SDS011;11591;44.792;10.358;2022-07-06T04:34:32;2.60;;;1.70;;
22849;SDS011;11591;44.792;10.358;2022-07-06T04:36:58;5.78;;;1.40;;
22849;SDS011;11591;44.792;10.358;2022-07-06T04:39:24;7.68;;;1.30;;
22849;SDS011;11591;44.792;10.358;2022-07-06T04:41:50;4.93;;;1.50;;
22849;SDS011;11591;44.792;10.358;2022-07-06T04:44:16;2.72;;;1.58;;
22849;SDS011;11591;44.792;10.358;2022-07-06T04:46:42;6.18;;;1.33;;
22849;SDS011;11591;44.792;10.358;2022-07-06T04:49:08;6.45;;;1.52;;
22849;SDS011;11591;44.792;10.358;2022-07-06T04:51:35;2.20;;;1.20;;
22849;SDS011;11591;44.792;10.358;2022-07-06T04:54:02;4.75;;;1.55;;
22849;SDS011;11591;44.792;10.358;2022-07-06T04:56:31;5.43;;;2.17;;
22849;SDS011;11591;44.792;10.358;2022-07-06T04:58:57;3.42;;;1.48;;
22849;SDS011;11591;44.792;10.358;2022-07-06T05:01:24;4.57;;;1.52;;
22849;SDS011;11591;44.792;10.358;2022-07-06T05:03:50;3.20;;;1.50;;
22849;SDS011;11591;44.792;10.358;2022-07-06T05:06:19;2.63;;;1.40;;
22849;SDS011;11591;44.792;10.358;2022-07-06T05:08:45;5.00;;;1.88;;
22849;SDS011;11591;44.792;10.358;2022-07-06T05:11:11;3.60;;;1.85;;
22849;SDS011;11591;44.792;10.358;2022-07-06T05:13:37;4.93;;;3.35;;
22849;SDS011;11591;44.792;10.358;2022-07-06T05:16:03;4.75;;;2.53;;
22849;SDS011;11591;44.792;10.358;2022-07-06T05:18:30;4.78;;;1.80;;
22849;SDS011;11591;44.792;10.358;2022-07-06T05:20:57;3.63;;;2.75;;
22849;SDS011;11591;44.792;10.358;2022-07-06T05:23:23;6.30;;;1.77;;
22849;SDS011;11591;44.792;10.358;2022-07-06T05:25:49;8.05;;;4.00;;
22849;SDS011;11591;44.792;10.358;2022-07-06T05:28:15;6.25;;;3.80;;
22849;SDS011;11591;44.792;10.358;2022-07-06T05:30:40;4.68;;;2.05;;
22849;SDS011;11591;44.792;10.358;2022-07-06T05:33:07;3.65;;;1.88;;
22849;SDS011;11591;44.792;10.358;2022-07-06T05:35:33;4.35;;;1.67;;
22849;SDS011;11591;44.792;10.358;2022-07-06T05:38:01;6.65;;;2.08;;
22849;SDS011;11591;44.792;10.358;2022-07-06T05:40:27;16.45;;;8.48;;
22849;SDS011;11591;44.792;10.358;2022-07-06T05:42:53;4.80;;;2.10;;
22849;SDS011;11591;44.792;10.358;2022-07-06T05:45:20;6.93;;;1.40;;
22849;SDS011;11591;44.792;10.358;2022-07-06T05:47:48;2.15;;;1.30;;
22849;SDS011;11591;44.792;10.358;2022-07-06T05:50:34;5.63;;;1.17;;
22849;SDS011;11591;44.792;10.358;2022-07-06T05:53:01;5.65;;;1.20;;
22849;SDS011;11591;44.792;10.358;2022-07-06T05:55:29;3.17;;;1.10;;
22849;SDS011;11591;44.792;10.358;2022-07-06T05:57:58;6.22;;;1.25;;
22849;SDS011;11591;44.792;10.358;2022-07-06T06:00:26;2.78;;;0.85;;
22849;SDS011;11591;44.792;10.358;2022-07-06T06:02:55;2.85;;;1.20;;
22849;SDS011;11591;44.792;10.358;2022-07-06T06:05:24;5.45;;;1.20;;
22849;SDS011;11591;44.792;10.358;2022-07-06T06:07:53;6.07;;;1.13;;
22849;SDS011;11591;44.792;10.358;2022-07-06T06:10:23;2.45;;;1.00;;
22849;SDS011;11591;44.792;10.358;2022-07-06T06:12:52;2.55;;;1.08;;
22849;SDS011;11591;44.792;10.358;2022-07-06T06:15:18;3.17;;;1.10;;
22849;SDS011;11591;44.792;10.358;2022-07-06T06:17:44;4.38;;;1.20;;
22849;SDS011;11591;44.792;10.358;2022-07-06T06:20:11;1.30;;;0.95;;
22849;SDS011;11591;44.792;10.358;2022-07-06T06:22:54;3.50;;;1.10;;
22849;SDS011;11591;44.792;10.358;2022-07-06T06:25:29;4.45;;;1.20;;
22849;SDS011;11591;44.792;10.358;2022-07-06T06:28:03;1.70;;;1.30;;
22849;SDS011;11591;44.792;10.358;2022-07-06T06:30:30;2.97;;;1.20;;
22849;SDS011;11591;44.792;10.358;2022-07-06T06:33:10;2.17;;;1.15;;
22849;SDS011;11591;44.792;10.358;2022-07-06T06:35:38;3.10;;;1.60;;
22849;SDS011;11591;44.792;10.358;2022-07-06T06:38:08;3.00;;;1.40;;
22849;SDS011;11591;44.792;10.358;2022-07-06T06:40:34;5.57;;;1.33;;
22849;SDS011;11591;44.792;10.358;2022-07-06T06:42:59;4.55;;;1.30;;
22849;SDS011;11591;44.792;10.358;2022-07-06T06:45:27;4.25;;;1.50;;
22849;SDS011;11591;44.792;10.358;2022-07-06T06:47:53;5.22;;;1.20;;
22849;SDS011;11591;44.792;10.358;2022-07-06T06:50:19;2.30;;;1.30;;
22849;SDS011;11591;44.792;10.358;2022-07-06T06:52:46;3.50;;;1.02;;
22849;SDS011;11591;44.792;10.358;2022-07-06T06:55:12;10.57;;;6.70;;
22849;SDS011;11591;44.792;10.358;2022-07-06T06:57:37;7.28;;;4.47;;
22849;SDS011;11591;44.792;10.358;2022-07-06T07:00:03;2.38;;;1.50;;
22849;SDS011;11591;44.792;10.358;2022-07-06T07:02:30;2.95;;;1.27;;
22849;SDS011;11591;44.792;10.358;2022-07-06T07:04:56;6.60;;;2.30;;
22849;SDS011;11591;44.792;10.358;2022-07-06T07:07:22;3.25;;;2.35;;
22849;SDS011;11591;44.792;10.358;2022-07-06T07:09:47;3.67;;;1.08;;
22849;SDS011;11591;44.792;10.358;2022-07-06T07:12:13;11.45;;;8.15;;
22849;SDS011;11591;44.792;10.358;2022-07-06T07:14:42;7.75;;;3.00;;
22849;SDS011;11591;44.792;10.358;2022-07-06T07:17:08;5.00;;;1.40;;
22849;SDS011;11591;44.792;10.358;2022-07-06T07:19:35;7.95;;;1.30;;
22849;SDS011;11591;44.792;10.358;2022-07-06T07:22:01;4.15;;;1.63;;
22849;SDS011;11591;44.792;10.358;2022-07-06T07:24:27;4.22;;;1.73;;
22849;SDS011;11591;44.792;10.358;2022-07-06T07:26:53;2.38;;;1.60;;
22849;SDS011;11591;44.792;10.358;2022-07-06T07:29:18;3.05;;;1.23;;
22849;SDS011;11591;44.792;10.358;2022-07-06T07:31:44;3.08;;;1.50;;
22849;SDS011;11591;44.792;10.358;2022-07-06T07:34:10;2.78;;;1.20;;
22849;SDS011;11591;44.792;10.358;2022-07-06T07:36:36;3.88;;;1.58;;
22849;SDS011;11591;44.792;10.358;2022-07-06T07:39:02;6.35;;;1.30;;
22849;SDS011;11591;44.792;10.358;2022-07-06T07:41:28;2.10;;;1.40;;
22849;SDS011;11591;44.792;10.358;2022-07-06T07:43:54;2.25;;;1.45;;
22849;SDS011;11591;44.792;10.358;2022-07-06T07:46:20;3.88;;;1.80;;
22849;SDS011;11591;44.792;10.358;2022-07-06T07:48:45;6.25;;;1.70;;
22849;SDS011;11591;44.792;10.358;2022-07-06T07:51:12;1.73;;;1.00;;
22849;SDS011;11591;44.792;10.358;2022-07-06T07:53:37;5.32;;;1.23;;
22849;SDS011;11591;44.792;10.358;2022-07-06T07:56:03;2.50;;;1.27;;
22849;SDS011;11591;44.792;10.358;2022-07-06T07:58:29;5.07;;;1.30;;
22849;SDS011;11591;44.792;10.358;2022-07-06T08:00:56;3.10;;;0.90;;
22849;SDS011;11591;44.792;10.358;2022-07-06T08:03:22;4.30;;;0.95;;
22849;SDS011;11591;44.792;10.358;2022-07-06T08:05:48;8.02;;;1.40;;
22849;SDS011;11591;44.792;10.358;2022-07-06T08:08:14;4.38;;;1.00;;
22849;SDS011;11591;44.792;10.358;2022-07-06T08:10:40;3.50;;;1.25;;
22849;SDS011;11591;44.792;10.358;2022-07-06T08:13:06;6.35;;;2.95;;
22849;SDS011;11591;44.792;10.358;2022-07-06T08:15:33;3.28;;;1.55;;
22849;SDS011;11591;44.792;10.358;2022-07-06T08:17:59;6.38;;;1.58;;
22849;SDS011;11591;44.792;10.358;2022-07-06T08:20:25;4.18;;;1.45;;
22849;SDS011;11591;44.792;10.358;2022-07-06T08:22:51;6.53;;;1.50;;
22849;SDS011;11591;44.792;10.358;2022-07-06T08:25:17;2.78;;;1.38;;
22849;SDS011;11591;44.792;10.358;2022-07-06T08:27:43;2.75;;;1.40;;
22849;SDS011;11591;44.792;10.358;2022-07-06T08:30:09;2.70;;;1.33;;
22849;SDS011;11591;44.792;10.358;2022-07-06T08:32:39;8.23;;;1.70;;
22849;SDS011;11591;44.792;10.358;2022-07-06T08:35:06;4.68;;;1.30;;
22849;SDS011;11591;44.792;10.358;2022-07-06T08:37:32;7.97;;;2.10;;
22849;SDS011;11591;44.792;10.358;2022-07-06T08:39:58;2.63;;;1.55;;
22849;SDS011;11591;44.792;10.358;2022-07-06T08:42:25;3.97;;;1.45;;
22849;SDS011;11591;44.792;10.358;2022-07-06T08:45:01;6.20;;;1.63;;
22849;SDS011;11591;44.792;10.358;2022-07-06T08:47:31;3.42;;;1.60;;
22849;SDS011;11591;44.792;10.358;2022-07-06T08:49:57;7.85;;;1.83;;
22849;SDS011;11591;44.792;10.358;2022-07-06T08:52:24;5.43;;;1.40;;
22849;SDS011;11591;44.792;10.358;2022-07-06T08:54:50;4.20;;;1.77;;
22849;SDS011;11591;44.792;10.358;2022-07-06T08:57:17;2.65;;;1.70;;
22849;SDS011;11591;44.792;10.358;2022-07-06T08:59:43;8.25;;;1.63;;
22849;SDS011;11591;44.792;10.358;2022-07-06T09:02:10;4.72;;;1.73;;
22849;SDS011;11591;44.792;10.358;2022-07-06T09:04:36;7.97;;;1.98;;
22849;SDS011;11591;44.792;10.358;2022-07-06T09:07:03;4.72;;;1.90;;
22849;SDS011;11591;44.792;10.358;2022-07-06T09:09:29;4.30;;;1.85;;
22849;SDS011;11591;44.792;10.358;2022-07-06T09:11:56;6.82;;;1.90;;
22849;SDS011;11591;44.792;10.358;2022-07-06T09:14:22;4.82;;;1.70;;
22849;SDS011;11591;44.792;10.358;2022-07-06T09:16:52;5.03;;;1.90;;
22849;SDS011;11591;44.792;10.358;2022-07-06T09:19:30;8.48;;;2.20;;
22849;SDS011;11591;44.792;10.358;2022-07-06T09:21:58;8.23;;;2.22;;
22849;SDS011;11591;44.792;10.358;2022-07-06T09:24:24;4.18;;;2.00;;
22849;SDS011;11591;44.792;10.358;2022-07-06T09:26:53;5.43;;;2.00;;
22849;SDS011;11591;44.792;10.358;2022-07-06T09:29:27;7.72;;;2.20;;
22849;SDS011;11591;44.792;10.358;2022-07-06T09:34:24;4.00;;;2.05;;
22849;SDS011;11591;44.792;10.358;2022-07-06T09:36:49;6.05;;;2.30;;
22849;SDS011;11591;44.792;10.358;2022-07-06T09:39:19;3.83;;;2.10;;
22849;SDS011;11591;44.792;10.358;2022-07-06T09:41:48;6.85;;;2.28;;
22849;SDS011;11591;44.792;10.358;2022-07-06T09:44:20;4.55;;;1.95;;
22849;SDS011;11591;44.792;10.358;2022-07-06T09:46:47;7.53;;;1.77;;
22849;SDS011;11591;44.792;10.358;2022-07-06T09:49:23;4.03;;;1.70;;
22849;SDS011;11591;44.792;10.358;2022-07-06T09:51:54;4.93;;;1.88;;
22849;SDS011;11591;44.792;10.358;2022-07-06T09:54:22;5.32;;;1.85;;
22849;SDS011;11591;44.792;10.358;2022-07-06T09:56:49;3.15;;;1.95;;
22849;SDS011;11591;44.792;10.358;2022-07-06T09:59:17;7.82;;;1.90;;
22849;SDS011;11591;44.792;10.358;2022-07-06T10:01:46;7.10;;;2.10;;
22849;SDS011;11591;44.792;10.358;2022-07-06T10:04:15;3.40;;;2.13;;
22849;SDS011;11591;44.792;10.358;2022-07-06T10:06:44;8.40;;;2.05;;
22849;SDS011;11591;44.792;10.358;2022-07-06T10:09:11;2.60;;;1.75;;
22849;SDS011;11591;44.792;10.358;2022-07-06T10:11:39;6.15;;;2.10;;
22849;SDS011;11591;44.792;10.358;2022-07-06T10:14:07;5.97;;;2.20;;
22849;SDS011;11591;44.792;10.358;2022-07-06T10:16:35;3.58;;;2.10;;
22849;SDS011;11591;44.792;10.358;2022-07-06T10:19:04;4.93;;;2.25;;
22849;SDS011;11591;44.792;10.358;2022-07-06T10:21:31;3.70;;;2.33;;
22849;SDS011;11591;44.792;10.358;2022-07-06T10:23:58;7.07;;;2.40;;
22849;SDS011;11591;44.792;10.358;2022-07-06T10:26:25;7.70;;;2.40;;
22849;SDS011;11591;44.792;10.358;2022-07-06T10:28:52;7.95;;;2.20;;
22849;SDS011;11591;44.792;10.358;2022-07-06T10:31:18;7.35;;;2.50;;
22849;SDS011;11591;44.792;10.358;2022-07-06T10:33:45;6.30;;;2.35;;
22849;SDS011;11591;44.792;10.358;2022-07-06T10:36:12;5.13;;;2.58;;
22849;SDS011;11591;44.792;10.358;2022-07-06T10:38:38;3.33;;;2.42;;
22849;SDS011;11591;44.792;10.358;2022-07-06T10:41:06;3.85;;;2.20;;
22849;SDS011;11591;44.792;10.358;2022-07-06T10:43:38;3.90;;;2.40;;
22849;SDS011;11591;44.792;10.358;2022-07-06T10:46:08;3.75;;;2.42;;
22849;SDS011;11591;44.792;10.358;2022-07-06T10:48:45;5.15;;;2.58;;
22849;SDS011;11591;44.792;10.358;2022-07-06T10:51:13;6.60;;;2.50;;
22849;SDS011;11591;44.792;10.358;2022-07-06T10:53:58;6.05;;;2.42;;
22849;SDS011;11591;44.792;10.358;2022-07-06T10:56:36;6.75;;;4.93;;
22849;SDS011;11591;44.792;10.358;2022-07-06T10:59:08;5.20;;;2.65;;
22849;SDS011;11591;44.792;10.358;2022-07-06T11:01:35;7.30;;;4.30;;
22849;SDS011;11591;44.792;10.358;2022-07-06T11:06:28;5.85;;;3.80;;
22849;SDS011;11591;44.792;10.358;2022-07-06T11:13:55;7.43;;;3.10;;
22849;SDS011;11591;44.792;10.358;2022-07-06T11:16:24;7.45;;;3.72;;
22849;SDS011;11591;44.792;10.358;2022-07-06T11:19:02;5.30;;;2.40;;
22849;SDS011;11591;44.792;10.358;2022-07-06T11:24:16;6.85;;;2.88;;
22849;SDS011;11591;44.792;10.358;2022-07-06T11:26:43;6.10;;;2.65;;
22849;SDS011;11591;44.792;10.358;2022-07-06T11:29:11;6.57;;;2.80;;
22849;SDS011;11591;44.792;10.358;2022-07-06T11:31:39;14.98;;;3.03;;
22849;SDS011;11591;44.792;10.358;2022-07-06T11:34:07;9.60;;;3.10;;
22849;SDS011;11591;44.792;10.358;2022-07-06T11:36:34;5.03;;;2.60;;
22849;SDS011;11591;44.792;10.358;2022-07-06T11:39:00;6.45;;;2.88;;
22849;SDS011;11591;44.792;10.358;2022-07-06T11:41:27;4.63;;;2.55;;
22849;SDS011;11591;44.792;10.358;2022-07-06T11:43:52;5.85;;;2.70;;
22849;SDS011;11591;44.792;10.358;2022-07-06T11:46:22;5.53;;;2.63;;
22849;SDS011;11591;44.792;10.358;2022-07-06T11:48:50;4.90;;;2.80;;
22849;SDS011;11591;44.792;10.358;2022-07-06T11:51:18;11.98;;;5.78;;
22849;SDS011;11591;44.792;10.358;2022-07-06T11:53:48;4.80;;;2.60;;
22849;SDS011;11591;44.792;10.358;2022-07-06T11:56:16;9.57;;;3.35;;
22849;SDS011;11591;44.792;10.358;2022-07-06T11:58:44;6.65;;;2.92;;
22849;SDS011;11591;44.792;10.358;2022-07-06T12:01:12;10.48;;;2.58;;
22849;SDS011;11591;44.792;10.358;2022-07-06T12:03:39;5.43;;;2.58;;
22849;SDS011;11591;44.792;10.358;2022-07-06T12:06:06;3.92;;;2.60;;
22849;SDS011;11591;44.792;10.358;2022-07-06T12:08:42;7.80;;;2.90;;
22849;SDS011;11591;44.792;10.358;2022-07-06T12:11:19;4.00;;;2.40;;
22849;SDS011;11591;44.792;10.358;2022-07-06T12:13:47;5.88;;;2.65;;
22849;SDS011;11591;44.792;10.358;2022-07-06T12:16:14;4.75;;;2.30;;
22849;SDS011;11591;44.792;10.358;2022-07-06T12:18:41;4.10;;;2.42;;
22849;SDS011;11591;44.792;10.358;2022-07-06T12:21:13;4.45;;;2.40;;
22849;SDS011;11591;44.792;10.358;2022-07-06T12:23:45;2.63;;;2.28;;
22849;SDS011;11591;44.792;10.358;2022-07-06T12:26:13;7.18;;;2.50;;
22849;SDS011;11591;44.792;10.358;2022-07-06T12:28:40;4.80;;;2.50;;
22849;SDS011;11591;44.792;10.358;2022-07-06T12:31:07;7.47;;;2.30;;
22849;SDS011;11591;44.792;10.358;2022-07-06T12:33:34;7.20;;;2.25;;
22849;SDS011;11591;44.792;10.358;2022-07-06T12:36:10;6.13;;;2.30;;
22849;SDS011;11591;44.792;10.358;2022-07-06T12:38:43;4.25;;;2.45;;
22849;SDS011;11591;44.792;10.358;2022-07-06T12:41:10;5.05;;;2.40;;
22849;SDS011;11591;44.792;10.358;2022-07-06T12:43:48;4.30;;;2.40;;
22849;SDS011;11591;44.792;10.358;2022-07-06T12:46:25;3.17;;;2.50;;
22849;SDS011;11591;44.792;10.358;2022-07-06T12:48:56;3.28;;;2.22;;
22849;SDS011;11591;44.792;10.358;2022-07-06T12:51:23;5.95;;;2.50;;
22849;SDS011;11591;44.792;10.358;2022-07-06T12:53:49;5.72;;;2.60;;
22849;SDS011;11591;44.792;10.358;2022-07-06T12:56:15;2.63;;;2.22;;
22849;SDS011;11591;44.792;10.358;2022-07-06T12:59:00;4.28;;;2.20;;
22849;SDS011;11591;44.792;10.358;2022-07-06T13:01:26;7.78;;;2.50;;
22849;SDS011;11591;44.792;10.358;2022-07-06T13:03:56;5.70;;;2.40;;
22849;SDS011;11591;44.792;10.358;2022-07-06T13:06:40;4.22;;;2.50;;
22849;SDS011;11591;44.792;10.358;2022-07-06T13:09:06;3.28;;;2.30;;
22849;SDS011;11591;44.792;10.358;2022-07-06T13:11:32;4.45;;;2.65;;
22849;SDS011;11591;44.792;10.358;2022-07-06T13:13:58;8.45;;;4.30;;
22849;SDS011;11591;44.792;10.358;2022-07-06T13:16:25;8.05;;;3.13;;
22849;SDS011;11591;44.792;10.358;2022-07-06T13:18:55;4.00;;;2.55;;
22849;SDS011;11591;44.792;10.358;2022-07-06T13:21:21;5.00;;;2.45;;
22849;SDS011;11591;44.792;10.358;2022-07-06T13:23:47;6.25;;;2.30;;
22849;SDS011;11591;44.792;10.358;2022-07-06T13:26:13;6.80;;;2.63;;
22849;SDS011;11591;44.792;10.358;2022-07-06T13:28:39;5.07;;;2.25;;
22849;SDS011;11591;44.792;10.358;2022-07-06T13:31:05;4.18;;;2.53;;
22849;SDS011;11591;44.792;10.358;2022-07-06T13:33:31;7.38;;;2.63;;
22849;SDS011;11591;44.792;10.358;2022-07-06T13:35:56;4.70;;;2.55;;
22849;SDS011;11591;44.792;10.358;2022-07-06T13:38:22;9.52;;;2.83;;
22849;SDS011;11591;44.792;10.358;2022-07-06T13:40:48;2.47;;;2.20;;
22849;SDS011;11591;44.792;10.358;2022-07-06T13:43:14;5.13;;;2.53;;
22849;SDS011;11591;44.792;10.358;2022-07-06T13:45:40;4.47;;;2.47;;
22849;SDS011;11591;44.792;10.358;2022-07-06T13:48:05;9.00;;;2.78;;
22849;SDS011;11591;44.792;10.358;2022-07-06T13:50:31;3.58;;;2.45;;
22849;SDS011;11591;44.792;10.358;2022-07-06T13:52:57;3.53;;;2.60;;
22849;SDS011;11591;44.792;10.358;2022-07-06T13:55:23;5.50;;;2.72;;
22849;SDS011;11591;44.792;10.358;2022-07-06T13:57:49;3.95;;;2.60;;
22849;SDS011;11591;44.792;10.358;2022-07-06T14:00:15;5.13;;;2.53;;
22849;SDS011;11591;44.792;10.358;2022-07-06T14:02:43;3.97;;;2.55;;
22849;SDS011;11591;44.792;10.358;2022-07-06T14:05:09;2.70;;;2.30;;
22849;SDS011;11591;44.792;10.358;2022-07-06T14:07:35;4.80;;;2.65;;
22849;SDS011;11591;44.792;10.358;2022-07-06T14:10:01;3.58;;;2.50;;
22849;SDS011;11591;44.792;10.358;2022-07-06T14:12:28;7.93;;;2.72;;
22849;SDS011;11591;44.792;10.358;2022-07-06T14:14:54;3.47;;;2.40;;
22849;SDS011;11591;44.792;10.358;2022-07-06T14:17:19;8.30;;;2.80;;
22849;SDS011;11591;44.792;10.358;2022-07-06T14:19:45;4.60;;;2.95;;
22849;SDS011;11591;44.792;10.358;2022-07-06T14:22:11;7.28;;;3.30;;
22849;SDS011;11591;44.792;10.358;2022-07-06T14:24:37;6.10;;;3.38;;
22849;SDS011;11591;44.792;10.358;2022-07-06T14:27:03;6.05;;;2.70;;
22849;SDS011;11591;44.792;10.358;2022-07-06T14:29:29;4.38;;;2.42;;
22849;SDS011;11591;44.792;10.358;2022-07-06T14:31:54;10.90;;;2.65;;
22849;SDS011;11591;44.792;10.358;2022-07-06T14:34:20;7.60;;;3.25;;
22849;SDS011;11591;44.792;10.358;2022-07-06T14:36:46;7.47;;;2.70;;
22849;SDS011;11591;44.792;10.358;2022-07-06T14:39:11;8.63;;;2.75;;
22849;SDS011;11591;44.792;10.358;2022-07-06T14:41:38;4.35;;;3.55;;
22849;SDS011;11591;44.792;10.358;2022-07-06T14:44:05;4.63;;;2.92;;
22849;SDS011;11591;44.792;10.358;2022-07-06T14:46:31;7.43;;;3.30;;
22849;SDS011;11591;44.792;10.358;2022-07-06T14:48:57;6.78;;;2.97;;
22849;SDS011;11591;44.792;10.358;2022-07-06T14:51:22;5.78;;;3.35;;
22849;SDS011;11591;44.792;10.358;2022-07-06T14:53:48;8.25;;;2.72;;
22849;SDS011;11591;44.792;10.358;2022-07-06T14:56:14;5.10;;;2.90;;
22849;SDS011;11591;44.792;10.358;2022-07-06T14:58:40;5.40;;;2.88;;
22849;SDS011;11591;44.792;10.358;2022-07-06T15:01:05;4.97;;;2.88;;
22849;SDS011;11591;44.792;10.358;2022-07-06T15:03:31;7.80;;;3.05;;
22849;SDS011;11591;44.792;10.358;2022-07-06T15:05:57;5.05;;;2.80;;
22849;SDS011;11591;44.792;10.358;2022-07-06T15:08:23;7.40;;;2.67;;
22849;SDS011;11591;44.792;10.358;2022-07-06T15:10:49;5.95;;;2.80;;
22849;SDS011;11591;44.792;10.358;2022-07-06T15:13:15;3.50;;;2.63;;
22849;SDS011;11591;44.792;10.358;2022-07-06T15:15:41;8.30;;;2.60;;
22849;SDS011;11591;44.792;10.358;2022-07-06T15:18:06;6.47;;;2.55;;
22849;SDS011;11591;44.792;10.358;2022-07-06T15:20:32;11.57;;;2.80;;
22849;SDS011;11591;44.792;10.358;2022-07-06T15:22:58;8.68;;;2.70;;
22849;SDS011;11591;44.792;10.358;2022-07-06T15:25:24;5.85;;;2.97;;
22849;SDS011;11591;44.792;10.358;2022-07-06T15:27:50;9.18;;;5.28;;
22849;SDS011;11591;44.792;10.358;2022-07-06T15:30:17;15.18;;;5.75;;
22849;SDS011;11591;44.792;10.358;2022-07-06T15:32:43;5.88;;;2.65;;
22849;SDS011;11591;44.792;10.358;2022-07-06T15:35:09;5.60;;;2.63;;
22849;SDS011;11591;44.792;10.358;2022-07-06T15:37:35;6.15;;;3.00;;
22849;SDS011;11591;44.792;10.358;2022-07-06T15:40:02;4.25;;;2.75;;
22849;SDS011;11591;44.792;10.358;2022-07-06T15:43:02;5.22;;;2.50;;
22849;SDS011;11591;44.792;10.358;2022-07-06T15:45:28;9.38;;;3.03;;
22849;SDS011;11591;44.792;10.358;2022-07-06T15:47:54;7.65;;;3.10;;
22849;SDS011;11591;44.792;10.358;2022-07-06T15:50:20;13.13;;;3.42;;
22849;SDS011;11591;44.792;10.358;2022-07-06T15:52:47;7.15;;;3.00;;
22849;SDS011;11591;44.792;10.358;2022-07-06T15:55:13;7.60;;;3.10;;
22849;SDS011;11591;44.792;10.358;2022-07-06T15:57:39;10.90;;;3.13;;
22849;SDS011;11591;44.792;10.358;2022-07-06T16:00:05;4.13;;;2.70;;
22849;SDS011;11591;44.792;10.358;2022-07-06T16:02:37;5.57;;;2.60;;
22849;SDS011;11591;44.792;10.358;2022-07-06T16:05:03;5.03;;;2.85;;
22849;SDS011;11591;44.792;10.358;2022-07-06T16:07:29;10.57;;;2.75;;
22849;SDS011;11591;44.792;10.358;2022-07-06T16:09:54;6.72;;;2.40;;
22849;SDS011;11591;44.792;10.358;2022-07-06T16:12:21;5.22;;;2.65;;
22849;SDS011;11591;44.792;10.358;2022-07-06T16:14:47;6.82;;;2.78;;
22849;SDS011;11591;44.792;10.358;2022-07-06T16:17:13;7.25;;;2.70;;
22849;SDS011;11591;44.792;10.358;2022-07-06T16:19:39;8.15;;;3.22;;
22849;SDS011;11591;44.792;10.358;2022-07-06T16:22:04;8.13;;;2.47;;
22849;SDS011;11591;44.792;10.358;2022-07-06T16:24:30;7.78;;;2.20;;
22849;SDS011;11591;44.792;10.358;2022-07-06T16:26:56;5.25;;;2.70;;
22849;SDS011;11591;44.792;10.358;2022-07-06T16:29:22;5.75;;;2.95;;
22849;SDS011;11591;44.792;10.358;2022-07-06T16:31:47;4.57;;;2.42;;
22849;SDS011;11591;44.792;10.358;2022-07-06T16:34:13;6.65;;;2.50;;
22849;SDS011;11591;44.792;10.358;2022-07-06T16:36:39;2.42;;;2.20;;
22849;SDS011;11591;44.792;10.358;2022-07-06T16:39:05;5.22;;;2.30;;
22849;SDS011;11591;44.792;10.358;2022-07-06T16:41:31;9.07;;;2.90;;
22849;SDS011;11591;44.792;10.358;2022-07-06T16:43:56;5.10;;;2.25;;
22849;SDS011;11591;44.792;10.358;2022-07-06T16:46:22;7.20;;;2.97;;
22849;SDS011;11591;44.792;10.358;2022-07-06T16:48:48;8.23;;;3.00;;
22849;SDS011;11591;44.792;10.358;2022-07-06T16:51:14;10.18;;;2.70;;
22849;SDS011;11591;44.792;10.358;2022-07-06T16:53:39;9.63;;;2.50;;
22849;SDS011;11591;44.792;10.358;2022-07-06T16:56:05;9.30;;;2.90;;
22849;SDS011;11591;44.792;10.358;2022-07-06T16:58:32;9.07;;;2.67;;
22849;SDS011;11591;44.792;10.358;2022-07-06T17:00:58;9.88;;;3.00;;
22849;SDS011;11591;44.792;10.358;2022-07-06T17:03:25;9.00;;;3.10;;
22849;SDS011;11591;44.792;10.358;2022-07-06T17:05:51;11.68;;;3.15;;
22849;SDS011;11591;44.792;10.358;2022-07-06T17:08:17;5.75;;;2.55;;
22849;SDS011;11591;44.792;10.358;2022-07-06T17:10:43;7.43;;;2.70;;
22849;SDS011;11591;44.792;10.358;2022-07-06T17:13:09;3.90;;;2.63;;
22849;SDS011;11591;44.792;10.358;2022-07-06T17:15:34;8.57;;;2.78;;
22849;SDS011;11591;44.792;10.358;2022-07-06T17:18:00;4.97;;;2.60;;
22849;SDS011;11591;44.792;10.358;2022-07-06T17:20:27;4.72;;;2.53;;
22849;SDS011;11591;44.792;10.358;2022-07-06T17:22:53;4.07;;;2.70;;
22849;SDS011;11591;44.792;10.358;2022-07-06T17:25:21;8.68;;;2.40;;
22849;SDS011;11591;44.792;10.358;2022-07-06T17:27:47;3.83;;;2.50;;
22849;SDS011;11591;44.792;10.358;2022-07-06T17:30:13;8.95;;;2.60;;
22849;SDS011;11591;44.792;10.358;2022-07-06T17:32:39;6.47;;;3.80;;
22849;SDS011;11591;44.792;10.358;2022-07-06T17:35:04;6.65;;;3.30;;
22849;SDS011;11591;44.792;10.358;2022-07-06T17:37:30;7.25;;;2.38;;
22849;SDS011;11591;44.792;10.358;2022-07-06T17:39:56;4.72;;;2.05;;
22849;SDS011;11591;44.792;10.358;2022-07-06T17:42:22;3.75;;;2.05;;
22849;SDS011;11591;44.792;10.358;2022-07-06T17:44:50;3.08;;;2.08;;
22849;SDS011;11591;44.792;10.358;2022-07-06T17:47:16;6.03;;;2.42;;
22849;SDS011;11591;44.792;10.358;2022-07-06T17:49:42;5.95;;;2.00;;
22849;SDS011;11591;44.792;10.358;2022-07-06T17:52:08;6.18;;;2.20;;
22849;SDS011;11591;44.792;10.358;2022-07-06T17:54:43;5.18;;;2.10;;
22849;SDS011;11591;44.792;10.358;2022-07-06T17:57:09;3.60;;;2.00;;
22849;SDS011;11591;44.792;10.358;2022-07-06T17:59:36;4.80;;;2.22;;
22849;SDS011;11591;44.792;10.358;2022-07-06T18:02:03;6.00;;;2.10;;
22849;SDS011;11591;44.792;10.358;2022-07-06T18:04:30;3.47;;;1.80;;
22849;SDS011;11591;44.792;10.358;2022-07-06T18:06:56;10.57;;;2.03;;
22849;SDS011;11591;44.792;10.358;2022-07-06T18:09:22;5.75;;;2.00;;
22849;SDS011;11591;44.792;10.358;2022-07-06T18:11:48;4.55;;;2.10;;
22849;SDS011;11591;44.792;10.358;2022-07-06T18:14:13;4.15;;;1.88;;
22849;SDS011;11591;44.792;10.358;2022-07-06T18:16:39;3.58;;;1.98;;
22849;SDS011;11591;44.792;10.358;2022-07-06T18:19:06;7.20;;;1.98;;
22849;SDS011;11591;44.792;10.358;2022-07-06T18:21:32;5.70;;;2.00;;
22849;SDS011;11591;44.792;10.358;2022-07-06T18:23:57;4.35;;;2.10;;
22849;SDS011;11591;44.792;10.358;2022-07-06T18:26:24;5.28;;;2.60;;
22849;SDS011;11591;44.792;10.358;2022-07-06T18:28:50;9.23;;;3.80;;
22849;SDS011;11591;44.792;10.358;2022-07-06T18:31:16;9.48;;;6.07;;
22849;SDS011;11591;44.792;10.358;2022-07-06T18:33:42;10.57;;;5.57;;
22849;SDS011;11591;44.792;10.358;2022-07-06T18:36:08;9.63;;;5.95;;
22849;SDS011;11591;44.792;10.358;2022-07-06T18:38:35;16.05;;;5.90;;
22849;SDS011;11591;44.792;10.358;2022-07-06T18:41:01;13.77;;;6.10;;
22849;SDS011;11591;44.792;10.358;2022-07-06T18:43:28;13.65;;;6.72;;
22849;SDS011;11591;44.792;10.358;2022-07-06T18:45:55;13.63;;;6.15;;
22849;SDS011;11591;44.792;10.358;2022-07-06T18:48:21;15.60;;;6.57;;
22849;SDS011;11591;44.792;10.358;2022-07-06T18:50:47;12.23;;;5.78;;
22849;SDS011;11591;44.792;10.358;2022-07-06T18:53:14;14.15;;;8.52;;
22849;SDS011;11591;44.792;10.358;2022-07-06T18:55:45;13.23;;;8.48;;